Airfield :
LOGIN :

Register | Disclaimer

   EN    FR    IT 

 










Legend :    VFR   Marginal VFR   IFR   Intensive IFR   Very Intensive IFR
Visi :
Ceiling :
>= 8 km
>= 3000ft
5 to 8 km
1000 to 3000 ft
1500m to 5 km
500 to 1000 ft
800 to 1500m
200 to 500 ft
< 800m
< 200 ft
Symbols :   Thunderstorms  Fog  Heavy snow  Heavy precipitations  Wind > 20 kt
SIGMETs :     Misc.  Thunderstorms  Icing  Turbulence  Mountain Waves  Volcanic Ashes






- Airport Elevation : 1300 ft
- IATA code : LIG


LFBL - Limoges

CURRENT METAR :
  • 190800Z AUTO 20007KT 0400 0350 R21/0750D R03/0450D FG VV/// 12/12 Q1017 TEMPO 3000 SHRA BECMG 28010KT OVC002 FEW020TCU

EXPIRED METARs :
  • 190730Z AUTO 20008KT 0550 0400 R21/0900N R03/0550D FG VV/// 12/12 Q1016 TEMPO 3000 SHRA BECMG 28010KT OVC002 FEW020TCU
  • 190700Z AUTO 19005KT 2300 1200 R21/3100D R03/4100D BR VV/// 12/11 Q1016 TEMPO 3000 -DZ BR BECMG OVC002 FEW020TCU
  • 190630Z AUTO 18004KT 9000 OVC002 12/11 Q1016 TEMPO 3000 -DZ BR BECMG OVC002 FEW020TCU
  • 190600Z AUTO 19005KT 140V220 5000 BR OVC002 11/11 Q1016 BECMG OVC002 FEW020TCU
  • 190530Z AUTO 20007KT 6000 OVC002 11/11 Q1016 TEMPO 3000 SHRA

TAF AMD TAF LFBL
Valid from the 19 at 08:00 until the 20 at 06:00 UTC


190800Z 1908/2006 20005KT 8000 OVC002 FEW020TCU
TEMPO 1908/1909 0300 FG VV///
BECMG 1909/1911 28010KT
BECMG 1911/1913 OVC006
BECMG 1913/1915 SCT012TCU BKN025
TEMPO 1909/1915 3000 SHRA
BECMG 1920/1922 OVC010
BECMG 1922/2001 4000 BR OVC004
PROB40 2001/2006 2000 BR OVC002
ATIS : +33 5 55 48 40 37



MET'MAP, your aeronautical weather chart ! - Copyright ORBIFLY December 2007 - Disclaimer

ORBIFLY MET'MAP TEAM :

Programming & Development : Alexandra Zaïnal
Concept & original design : Baudouin d'Aumeries
Assistance for programming : Marc-Olivier Méhu
Technical & hardware support : Manuel Goepfert

Contact : metmap@orbifly.com




SOURCES & CREDITS :

   NOAA